Maldives Meteorological Service

METAR

Station
VRMM
METAR VRMM 270500Z 07014KT 9999 SCT018 30/24 Q1012 NOSIG=
VRMH
METAR VRMH 270500Z 35005KT 9000 FEW018 31/24 Q1012=
VRMK
METAR VRMK 270500Z 03009KT 9999 FEW018 SCT270 31/26 Q1011=
VRMT
METAR VRMT 270500Z 05006KT 9999 SCT017 FEW018CB BKN130 30/26 Q1011 CB E,SE=
VRMG
METAR VRMG 270500Z 03007KT 8000 SCT016 FEW017CB BKN100 27/25 Q1011 CB S TEMPO 4000 SHRA=
Last Updated : 2020-02-27 09:59:42

SPECI

Station
VRMM
VRMH
VRMK
VRMT
VRMG
Last Updated : 2020-02-27 09:59:42